Time;durP1;ratioP1;P1;durP2;ratioP2;P2;SDS_P1;SDS_P2;PMS_P1;PMS_P2;Temp;Humidity;BMP_temperature;BMP_pressure;BME280_temperature;BME280_humidity;BME280_pressure;Samples;Min_cycle;Max_cycle;Signal;HPM_P1;HPM_P2
2023/08/08 00:00:06;;;;;;;3.85;2.47;;;;;;;18.03;69.44;99751.08;1657232;86;21066;-62
2023/08/08 00:02:35;;;;;;;4.83;2.60;;;;;;;18.03;69.44;99747.76;1690458;85;21098;-63
2023/08/08 00:05:05;;;;;;;3.33;2.42;;;;;;;18.08;69.38;99751.67;1656915;86;21094;-63
2023/08/08 00:07:34;;;;;;;3.80;2.52;;;;;;;18.04;69.21;99753.59;1656846;86;21121;-64
2023/08/08 00:10:04;;;;;;;4.25;2.60;;;;;;;18.00;69.36;99754.38;1657034;86;21059;-64
2023/08/08 00:12:34;;;;;;;3.02;2.27;;;;;;;17.98;69.49;99760.19;1656919;86;21110;-63
2023/08/08 00:15:03;;;;;;;4.00;2.60;;;;;;;17.98;69.54;99757.96;1657107;86;21058;-64
2023/08/08 00:17:32;;;;;;;4.25;2.42;;;;;;;17.97;69.58;99764.60;1656906;86;21089;-64
2023/08/08 00:20:01;;;;;;;5.30;2.58;;;;;;;17.98;69.66;99765.73;1657011;86;21058;-63
2023/08/08 00:22:30;;;;;;;3.85;2.98;;;;;;;17.97;69.48;99766.83;1657165;86;21082;-64
2023/08/08 00:24:58;;;;;;;3.90;2.58;;;;;;;17.99;69.56;99774.88;1690229;85;21126;-64
2023/08/08 00:27:27;;;;;;;4.62;2.60;;;;;;;17.97;69.77;99772.37;1688565;84;21501;-63
2023/08/08 00:29:56;;;;;;;4.83;2.52;;;;;;;17.98;69.58;99778.20;1687916;84;21542;-64
2023/08/08 00:32:27;;;;;;;4.47;2.65;;;;;;;17.98;69.48;99777.36;1645460;87;21078;-63
2023/08/08 00:34:57;;;;;;;3.12;2.00;;;;;;;17.96;69.35;99773.47;1657067;86;21731;-63
2023/08/08 00:37:26;;;;;;;4.37;2.02;;;;;;;17.95;69.33;99773.73;1656979;86;21038;-62
2023/08/08 00:39:54;;;;;;;2.98;2.37;;;;;;;17.93;69.34;99771.77;1656857;86;21066;-64
2023/08/08 00:42:23;;;;;;;4.58;2.55;;;;;;;17.89;69.30;99769.23;1657109;85;21513;-64
2023/08/08 00:44:51;;;;;;;3.47;2.47;;;;;;;17.83;69.44;99771.11;1656950;86;21023;-63
2023/08/08 00:47:21;;;;;;;4.08;2.27;;;;;;;17.82;69.54;99766.66;1645682;87;21091;-62
2023/08/08 00:49:49;;;;;;;3.12;2.12;;;;;;;17.84;69.58;99768.62;1617738;87;21030;-64
2023/08/08 00:52:20;;;;;;;4.28;2.45;;;;;;;17.86;69.53;99771.14;1626910;87;21105;-62
2023/08/08 00:54:48;;;;;;;6.72;2.85;;;;;;;17.85;69.43;99775.00;1656869;85;21122;-64
2023/08/08 00:57:17;;;;;;;3.70;2.70;;;;;;;17.83;69.59;99768.89;1645444;87;21054;-64
2023/08/08 00:59:46;;;;;;;3.87;2.65;;;;;;;17.82;69.64;99765.28;1645304;87;21125;-63
2023/08/08 01:02:16;;;;;;;5.22;2.80;;;;;;;17.79;69.69;99768.57;1645503;86;21054;-64
2023/08/08 01:04:45;;;;;;;5.47;2.90;;;;;;;17.78;69.70;99768.83;1656999;86;21046;-64
2023/08/08 01:07:22;;;;;;;4.12;2.40;;;;;;;17.79;69.72;99760.26;1657180;86;21026;-67
2023/08/08 01:10:10;;;;;;;4.00;2.52;;;;;;;17.78;69.67;99763.29;1650653;87;21054;-64
2023/08/08 01:12:45;;;;;;;3.72;2.50;;;;;;;17.73;69.73;99765.46;1655523;86;21491;-63
2023/08/08 01:15:14;;;;;;;3.92;2.25;;;;;;;17.70;69.80;99759.89;1645302;86;21130;-67
2023/08/08 01:17:42;;;;;;;3.77;2.35;;;;;;;17.70;69.84;99766.81;1657063;86;21114;-64
2023/08/08 01:20:14;;;;;;;3.95;2.15;;;;;;;17.71;69.84;99770.42;1645532;87;21062;-63
2023/08/08 01:23:20;;;;;;;5.22;2.60;;;;;;;17.71;69.83;99773.20;1645538;86;21090;-64
2023/08/08 01:25:49;;;;;;;3.80;2.60;;;;;;;17.70;69.92;99779.83;1645521;86;21074;-62
2023/08/08 01:28:22;;;;;;;5.03;2.40;;;;;;;17.66;69.98;99783.67;1649231;86;21194;-62
2023/08/08 01:30:51;;;;;;;4.75;2.40;;;;;;;17.61;70.04;99783.58;1649754;87;21059;-63
2023/08/08 01:33:19;;;;;;;3.92;2.45;;;;;;;17.58;70.15;99784.64;1649624;87;21107;-64
2023/08/08 01:35:52;;;;;;;3.25;2.27;;;;;;;17.57;70.25;99781.59;1649583;87;21538;-64
2023/08/08 01:38:34;;;;;;;5.90;2.58;;;;;;;17.53;70.25;99788.16;1649533;86;21086;-63
2023/08/08 01:41:03;;;;;;;5.05;2.70;;;;;;;17.50;70.38;99794.77;1649513;87;21440;-63
2023/08/08 01:43:32;;;;;;;4.22;2.72;;;;;;;17.46;70.48;99789.45;1649691;87;21119;-63
2023/08/08 01:46:01;;;;;;;3.58;2.70;;;;;;;17.44;70.61;99796.63;1649682;87;21066;-62
2023/08/08 01:48:30;;;;;;;5.30;3.10;;;;;;;17.45;70.65;99799.69;1649522;87;21063;-64
2023/08/08 01:50:59;;;;;;;5.60;3.02;;;;;;;17.46;70.71;99798.59;1649490;86;21526;-63
2023/08/08 01:53:27;;;;;;;5.08;2.83;;;;;;;17.46;70.72;99794.98;1649776;86;21067;-63
2023/08/08 01:55:56;;;;;;;5.58;2.95;;;;;;;17.44;70.83;99801.63;1649520;87;21110;-63
2023/08/08 01:58:25;;;;;;;4.55;2.58;;;;;;;17.41;70.91;99799.92;1649540;87;21083;-63
2023/08/08 02:00:54;;;;;;;5.70;2.80;;;;;;;17.41;70.91;99804.07;1649861;87;21078;-62
2023/08/08 02:03:24;;;;;;;4.10;2.72;;;;;;;17.42;70.92;99806.58;1649753;87;21086;-63
2023/08/08 02:05:53;;;;;;;5.20;2.62;;;;;;;17.40;70.85;99808.77;1649562;86;21086;-63
2023/08/08 02:08:22;;;;;;;5.53;2.60;;;;;;;17.37;70.84;99809.28;1649839;86;21111;-62
2023/08/08 02:10:51;;;;;;;4.65;2.87;;;;;;;17.37;70.83;99813.44;1649620;87;21094;-64
2023/08/08 02:13:20;;;;;;;4.33;2.70;;;;;;;17.39;70.85;99820.95;1649647;87;21059;-63
2023/08/08 02:15:49;;;;;;;5.15;2.60;;;;;;;17.38;71.00;99818.43;1649602;87;21072;-63
2023/08/08 02:18:18;;;;;;;3.52;2.20;;;;;;;17.40;70.95;99819.01;1649626;87;21487;-62
2023/08/08 02:20:48;;;;;;;4.20;2.90;;;;;;;17.37;70.79;99828.67;1649535;87;21019;-64
2023/08/08 02:23:18;;;;;;;4.50;2.47;;;;;;;17.34;70.98;99836.11;1649720;87;21058;-63
2023/08/08 02:25:47;;;;;;;5.08;3.02;;;;;;;17.31;71.11;99828.31;1649817;87;21098;-62
2023/08/08 02:28:17;;;;;;;4.87;2.90;;;;;;;17.32;71.21;99836.07;1649632;86;21062;-62
2023/08/08 02:30:45;;;;;;;6.35;3.30;;;;;;;17.33;71.34;99836.36;1649738;87;21066;-64
2023/08/08 02:33:14;;;;;;;7.70;3.77;;;;;;;17.35;71.37;99838.33;1649829;87;21566;-64
2023/08/08 02:35:43;;;;;;;7.90;4.28;;;;;;;17.34;71.52;99847.18;1649669;87;21067;-64
2023/08/08 02:38:11;;;;;;;4.85;3.17;;;;;;;17.31;71.66;99842.70;1649677;87;21771;-63
2023/08/08 02:40:42;;;;;;;6.65;3.05;;;;;;;17.28;71.85;99841.83;1649834;87;21066;-64
2023/08/08 02:43:11;;;;;;;4.35;2.90;;;;;;;17.25;71.95;99839.57;1649633;87;21088;-64
2023/08/08 02:45:40;;;;;;;4.90;3.37;;;;;;;17.25;71.92;99837.64;1649789;87;21075;-63
2023/08/08 02:48:08;;;;;;;5.83;3.77;;;;;;;17.25;71.87;99842.34;1649642;87;21027;-63
2023/08/08 02:50:38;;;;;;;6.62;3.52;;;;;;;17.25;71.92;99849.27;1649719;87;21051;-63
2023/08/08 02:53:09;;;;;;;3.47;2.55;;;;;;;17.24;71.95;99844.27;1650056;87;21071;-63
2023/08/08 02:55:40;;;;;;;5.12;2.65;;;;;;;17.24;72.11;99852.58;1649499;87;21027;-63
2023/08/08 02:58:08;;;;;;;4.45;2.67;;;;;;;17.24;72.20;99847.04;1649670;87;21054;-63
2023/08/08 03:00:37;;;;;;;4.03;2.83;;;;;;;17.25;72.18;99848.72;1649823;87;21007;-63
2023/08/08 03:03:08;;;;;;;5.35;2.70;;;;;;;17.23;72.19;99849.52;1649827;87;21079;-63
2023/08/08 03:05:38;;;;;;;5.45;3.00;;;;;;;17.15;72.26;99839.42;1649572;87;21503;-63
2023/08/08 03:08:08;;;;;;;5.03;3.47;;;;;;;17.09;72.30;99834.36;1649865;87;21102;-64
2023/08/08 03:10:38;;;;;;;7.15;3.85;;;;;;;17.04;72.68;99839.82;1649670;87;21106;-63
2023/08/08 03:13:07;;;;;;;7.03;4.05;;;;;;;16.97;73.26;99846.08;1649622;86;21067;-63
2023/08/08 03:15:37;;;;;;;8.65;4.20;;;;;;;16.95;73.81;99842.72;1649577;87;21075;-63
2023/08/08 03:18:05;;;;;;;7.15;3.45;;;;;;;16.90;74.18;99846.22;1649681;87;21094;-64
2023/08/08 03:20:35;;;;;;;8.28;3.87;;;;;;;16.89;74.29;99861.14;1649592;87;21506;-64
2023/08/08 03:23:04;;;;;;;8.05;3.92;;;;;;;16.88;74.52;99856.70;1649587;86;21023;-64
2023/08/08 03:25:33;;;;;;;9.05;4.10;;;;;;;16.88;74.76;99857.25;1649748;87;21062;-64
2023/08/08 03:28:03;;;;;;;8.08;4.17;;;;;;;16.85;75.00;99863.28;1649758;86;21038;-64
2023/08/08 03:30:33;;;;;;;6.60;4.00;;;;;;;16.86;75.21;99860.81;1649751;86;21106;-63
2023/08/08 03:33:02;;;;;;;6.50;3.72;;;;;;;16.88;75.32;99861.39;1649583;87;21090;-62
2023/08/08 03:35:31;;;;;;;6.72;3.95;;;;;;;16.91;75.20;99870.06;1649664;87;21047;-64
2023/08/08 03:38:00;;;;;;;8.85;4.35;;;;;;;16.95;74.92;99875.94;1649769;87;21058;-63
2023/08/08 03:40:30;;;;;;;7.87;4.25;;;;;;;16.98;74.87;99887.88;1649882;87;21043;-63
2023/08/08 03:43:00;;;;;;;5.28;3.15;;;;;;;17.01;74.86;99884.61;1649591;87;21059;-63
2023/08/08 03:45:29;;;;;;;3.90;2.60;;;;;;;17.05;74.91;99881.63;1649579;87;21058;-62
2023/08/08 03:47:58;;;;;;;4.12;2.50;;;;;;;17.13;74.46;99892.28;1649516;87;21074;-63
2023/08/08 03:50:27;;;;;;;3.15;2.20;;;;;;;17.17;73.98;99891.23;1649692;86;21110;-64
2023/08/08 03:52:56;;;;;;;5.08;2.37;;;;;;;17.23;73.70;99897.13;1649573;87;21083;-62
2023/08/08 03:55:25;;;;;;;7.47;2.00;;;;;;;17.28;73.31;99896.66;1649482;87;21067;-63
2023/08/08 03:57:54;;;;;;;5.67;1.80;;;;;;;17.34;72.92;99898.41;1649758;87;21059;-63
2023/08/08 04:00:22;;;;;;;2.00;1.70;;;;;;;17.37;72.49;99903.45;1649892;87;21023;-62
2023/08/08 04:02:50;;;;;;;2.17;1.60;;;;;;;17.42;72.31;99909.05;1649738;87;21451;-61
2023/08/08 04:05:20;;;;;;;3.17;1.60;;;;;;;17.47;72.07;99911.61;1649730;87;21087;-63
2023/08/08 04:07:49;;;;;;;2.25;1.50;;;;;;;17.48;71.78;99918.28;1649670;86;21050;-62
2023/08/08 04:10:18;;;;;;;4.25;1.65;;;;;;;17.50;71.67;99928.55;1649703;87;21479;-64
2023/08/08 04:12:49;;;;;;;5.22;2.27;;;;;;;17.57;71.52;99928.41;1649489;87;21086;-64
2023/08/08 04:15:19;;;;;;;5.25;2.00;;;;;;;17.62;71.42;99935.41;1649562;87;21095;-63
2023/08/08 04:17:48;;;;;;;4.25;1.60;;;;;;;17.68;71.25;99938.03;1649715;87;21102;-62
2023/08/08 04:20:17;;;;;;;1.85;1.47;;;;;;;17.73;71.12;99936.71;1649582;87;21055;-63
2023/08/08 04:22:46;;;;;;;1.90;1.67;;;;;;;17.79;70.91;99943.70;1649777;86;21027;-62
2023/08/08 04:25:16;;;;;;;3.98;1.90;;;;;;;17.81;70.71;99947.90;1649545;87;21051;-63
2023/08/08 04:27:45;;;;;;;3.52;1.80;;;;;;;17.84;70.69;99950.16;1645868;86;21057;-65
2023/08/08 04:30:14;;;;;;;7.92;3.67;;;;;;;17.85;70.61;99942.69;1636882;88;21062;-64
2023/08/08 04:32:45;;;;;;;5.47;2.20;;;;;;;17.86;70.57;99944.36;1669712;86;21117;-62
2023/08/08 04:35:14;;;;;;;2.77;1.50;;;;;;;17.89;70.53;99953.00;1669423;85;21105;-63
2023/08/08 04:37:43;;;;;;;2.52;1.60;;;;;;;17.95;70.45;99954.74;1636717;87;21264;-62
2023/08/08 04:40:12;;;;;;;3.27;1.98;;;;;;;18.00;70.34;99963.13;1669717;85;21125;-63
2023/08/08 04:42:41;;;;;;;5.37;1.70;;;;;;;18.02;70.24;99965.64;1669392;86;21073;-64
2023/08/08 04:45:10;;;;;;;4.75;2.08;;;;;;;18.05;70.28;99971.51;1669794;86;21065;-64
2023/08/08 04:47:40;;;;;;;3.05;1.60;;;;;;;18.09;70.08;99972.38;1669592;86;21119;-63
2023/08/08 04:50:10;;;;;;;2.27;1.60;;;;;;;18.10;70.02;99979.05;1636856;86;21101;-63
2023/08/08 04:52:39;;;;;;;3.90;2.00;;;;;;;18.11;69.86;99982.12;1636858;86;21102;-64
2023/08/08 04:55:09;;;;;;;7.72;1.98;;;;;;;18.10;69.91;99975.44;1669534;85;21085;-63
2023/08/08 04:57:37;;;;;;;3.08;1.60;;;;;;;18.11;69.96;99979.89;1636835;87;21063;-62
2023/08/08 05:00:10;;;;;;;3.17;1.75;;;;;;;18.12;69.94;99976.02;1669537;86;21089;-63
2023/08/08 05:02:40;;;;;;;5.60;2.25;;;;;;;18.14;69.97;99980.77;1669530;85;21487;-62
2023/08/08 05:05:09;;;;;;;6.15;1.60;;;;;;;18.19;70.14;99983.60;1636856;88;21026;-63
2023/08/08 05:07:39;;;;;;;4.75;1.90;;;;;;;18.24;70.14;99969.83;1669231;86;21045;-64
2023/08/08 05:10:08;;;;;;;3.62;1.77;;;;;;;18.30;69.98;99975.18;1636641;88;21066;-64
2023/08/08 05:12:36;;;;;;;2.98;1.70;;;;;;;18.36;69.68;99974.14;1669346;85;21058;-63
2023/08/08 05:15:07;;;;;;;5.47;3.90;;;;;;;18.41;69.44;99977.53;1636643;87;21010;-64
2023/08/08 05:17:36;;;;;;;3.65;1.90;;;;;;;18.47;69.39;99979.26;1669474;86;21114;-62
2023/08/08 05:20:07;;;;;;;1.92;1.60;;;;;;;18.56;69.25;99979.64;1669406;86;21097;-64
2023/08/08 05:22:36;;;;;;;7.22;3.92;;;;;;;18.60;68.77;99984.41;1636891;86;21050;-63
2023/08/08 05:25:07;;;;;;;6.55;2.02;;;;;;;18.65;68.57;99995.59;1669308;86;21101;-62
2023/08/08 05:27:36;;;;;;;3.83;1.80;;;;;;;18.75;68.34;99998.19;1637806;87;21073;-64
2023/08/08 05:30:06;;;;;;;2.60;1.52;;;;;;;18.88;67.92;99999.19;1649436;86;21544;-63
2023/08/08 05:32:35;;;;;;;3.00;1.90;;;;;;;18.96;67.32;100001.49;1649550;87;21642;-63
2023/08/08 05:35:05;;;;;;;3.58;1.60;;;;;;;19.12;67.04;100001.09;1649507;87;21019;-63
2023/08/08 05:37:34;;;;;;;2.08;1.50;;;;;;;19.28;66.57;99999.57;1649457;87;21561;-62
2023/08/08 05:40:06;;;;;;;5.72;2.98;;;;;;;19.42;65.88;100003.29;1649588;87;21090;-63
2023/08/08 05:42:35;;;;;;;5.85;1.40;;;;;;;19.51;65.30;99993.39;1649643;87;21099;-64
2023/08/08 05:45:05;;;;;;;1.47;1.17;;;;;;;19.57;64.07;99997.91;1649580;87;21063;-62
2023/08/08 05:47:35;;;;;;;2.77;1.50;;;;;;;19.60;63.28;99995.98;1649555;87;21217;-64
2023/08/08 05:50:06;;;;;;;2.70;1.35;;;;;;;19.59;62.51;99999.88;1649640;87;21074;-63
2023/08/08 05:52:35;;;;;;;2.45;1.27;;;;;;;19.57;62.71;99997.91;1649782;87;21054;-63
2023/08/08 05:55:13;;;;;;;3.70;1.22;;;;;;;19.61;62.86;99998.50;1649426;87;21157;-64
2023/08/08 05:57:43;;;;;;;4.08;1.60;;;;;;;19.68;62.69;99999.66;1649624;87;21099;-63
2023/08/08 06:00:13;;;;;;;1.45;1.20;;;;;;;19.76;62.35;99992.20;1649462;87;21506;-62
2023/08/08 06:02:44;;;;;;;2.67;2.10;;;;;;;19.86;61.75;99996.99;1649785;86;21462;-64
2023/08/08 06:05:13;;;;;;;7.90;1.92;;;;;;;19.92;61.51;99999.54;1649621;87;21094;-63
2023/08/08 06:07:42;;;;;;;2.45;1.32;;;;;;;20.02;61.12;100002.09;1649603;86;21062;-63
2023/08/08 06:10:12;;;;;;;2.67;1.50;;;;;;;20.09;60.73;100003.52;1649649;86;21035;-62
2023/08/08 06:12:41;;;;;;;2.70;1.30;;;;;;;20.19;60.62;99999.98;1649447;87;21086;-62
2023/08/08 06:15:10;;;;;;;2.85;1.37;;;;;;;20.29;60.11;100000.03;1649499;87;21548;-63
2023/08/08 06:17:39;;;;;;;2.00;1.20;;;;;;;20.32;59.55;100006.45;1649665;87;21047;-63
2023/08/08 06:20:11;;;;;;;2.22;1.40;;;;;;;20.38;59.52;100008.14;1649451;87;21503;-63
2023/08/08 06:22:42;;;;;;;4.10;1.57;;;;;;;20.43;59.28;100006.80;1649550;87;21583;-64
2023/08/08 06:25:11;;;;;;;2.50;1.75;;;;;;;20.51;59.07;100004.88;1649495;87;21488;-66
2023/08/08 06:27:41;;;;;;;3.50;1.90;;;;;;;20.57;58.82;100003.79;1649521;87;21515;-63
2023/08/08 06:30:11;;;;;;;4.97;2.00;;;;;;;20.61;58.81;99999.07;1649575;87;21082;-65
2023/08/08 06:32:41;;;;;;;6.53;2.50;;;;;;;20.71;58.82;100005.50;1649452;87;21035;-63
2023/08/08 06:35:10;;;;;;;10.40;2.98;;;;;;;20.93;58.32;100007.25;1649400;87;21054;-63
2023/08/08 06:37:41;;;;;;;9.10;2.10;;;;;;;21.17;58.13;100003.66;1649456;87;21047;-63
2023/08/08 06:40:12;;;;;;;3.15;1.85;;;;;;;21.37;56.65;100012.63;1649440;87;21035;-65
2023/08/08 06:42:41;;;;;;;3.80;1.92;;;;;;;21.44;56.09;100012.34;1649648;87;21474;-64
2023/08/08 06:45:11;;;;;;;4.72;2.10;;;;;;;21.58;55.86;100020.46;1649539;87;21072;-63
2023/08/08 06:47:40;;;;;;;7.28;2.37;;;;;;;21.74;55.41;100012.36;1649692;87;21022;-63
2023/08/08 06:50:09;;;;;;;3.95;2.55;;;;;;;21.89;54.58;100011.50;1649661;87;21063;-63
2023/08/08 06:52:38;;;;;;;5.28;2.70;;;;;;;22.00;54.28;100013.14;1649508;87;21146;-61
2023/08/08 06:55:08;;;;;;;12.73;3.50;;;;;;;22.11;54.05;100021.83;1649697;87;21054;-64
2023/08/08 06:57:37;;;;;;;8.03;2.25;;;;;;;22.34;54.01;100025.94;1649539;87;21011;-63
2023/08/08 07:00:08;;;;;;;4.45;2.40;;;;;;;22.70;53.04;100029.98;1649951;87;21075;-63
2023/08/08 07:02:38;;;;;;;4.33;2.52;;;;;;;23.05;52.61;100028.44;1649565;87;21075;-64
2023/08/08 07:05:09;;;;;;;5.72;3.45;;;;;;;23.45;51.95;100024.27;1649432;87;21039;-62
2023/08/08 07:07:38;;;;;;;5.85;2.40;;;;;;;23.83;50.18;100036.55;1649615;87;21079;-63
2023/08/08 07:10:09;;;;;;;4.87;1.75;;;;;;;23.99;49.14;100019.30;1649447;87;21086;-63
2023/08/08 07:12:38;;;;;;;3.50;1.77;;;;;;;24.12;48.71;100027.59;1649406;87;21986;-63
2023/08/08 07:15:09;;;;;;;2.77;1.80;;;;;;;24.33;48.50;100034.67;1649733;87;21090;-63
2023/08/08 07:17:37;;;;;;;3.80;1.90;;;;;;;24.53;47.75;100037.79;1630802;87;21086;-63
2023/08/08 07:20:08;;;;;;;2.05;1.40;;;;;;;24.69;47.36;100034.22;1649695;87;21062;-63
2023/08/08 07:22:38;;;;;;;3.12;1.35;;;;;;;25.00;46.33;100036.67;1649481;87;21081;-63
2023/08/08 07:25:09;;;;;;;2.12;1.22;;;;;;;25.21;45.74;100035.23;1649717;87;21094;-63
2023/08/08 07:27:38;;;;;;;5.15;1.75;;;;;;;25.21;45.36;100040.27;1649513;87;21038;-63
2023/08/08 07:30:08;;;;;;;3.62;1.55;;;;;;;25.11;45.27;100042.39;1655797;86;21098;-63
2023/08/08 07:32:37;;;;;;;4.30;1.70;;;;;;;25.09;45.58;100039.89;1657028;86;21054;-62
2023/08/08 07:35:08;;;;;;;5.10;1.85;;;;;;;25.12;44.87;100044.06;1656762;86;21098;-63
2023/08/08 07:37:38;;;;;;;2.33;1.40;;;;;;;25.19;45.64;100038.91;1690276;85;21062;-63
2023/08/08 07:40:20;;;;;;;2.05;1.20;;;;;;;25.39;44.94;100033.02;1656876;86;21055;-63
2023/08/08 07:42:50;;;;;;;2.58;1.57;;;;;;;25.67;44.62;100029.77;1690186;85;21042;-62
2023/08/08 07:45:19;;;;;;;2.33;1.60;;;;;;;25.93;43.82;100027.34;1657083;86;21062;-62
2023/08/08 07:47:49;;;;;;;4.28;1.90;;;;;;;26.14;43.86;100024.44;1656938;86;21487;-64
2023/08/08 07:50:19;;;;;;;4.50;2.02;;;;;;;26.43;43.57;100021.36;1690540;85;21026;-63
2023/08/08 07:52:49;;;;;;;4.53;2.60;;;;;;;26.77;42.64;100015.33;1653423;85;21497;-64
2023/08/08 07:55:19;;;;;;;4.12;1.70;;;;;;;27.03;41.98;100017.02;1665118;86;21053;-63
2023/08/08 07:57:48;;;;;;;2.17;1.50;;;;;;;27.23;40.48;100011.48;1662778;86;21069;-65
2023/08/08 08:00:20;;;;;;;11.48;2.58;;;;;;;27.37;40.71;100015.11;1662358;86;21055;-61
2023/08/08 08:02:49;;;;;;;3.10;1.60;;;;;;;27.46;40.38;100020.23;1666716;86;21037;-66
2023/08/08 08:05:19;;;;;;;1.85;1.15;;;;;;;27.64;38.62;100033.88;1666704;86;21073;-63
2023/08/08 08:07:48;;;;;;;2.72;1.10;;;;;;;27.81;38.05;100038.80;1666700;86;21137;-62
2023/08/08 08:10:18;;;;;;;3.47;1.50;;;;;;;27.88;37.59;100043.98;1663506;84;21044;-64
2023/08/08 08:12:46;;;;;;;4.53;1.95;;;;;;;27.87;37.89;100041.73;1662297;86;21158;-64
2023/08/08 08:15:18;;;;;;;1.40;1.20;;;;;;;27.97;38.27;100035.86;1662216;86;21163;-62
2023/08/08 08:17:51;;;;;;;2.47;1.50;;;;;;;28.14;38.00;100038.52;1662194;86;21093;-63
2023/08/08 08:20:21;;;;;;;2.45;1.00;;;;;;;28.19;38.01;100024.30;1662189;86;21029;-62
2023/08/08 08:22:50;;;;;;;3.75;1.87;;;;;;;28.28;37.51;100027.44;1661825;86;21010;-64
2023/08/08 08:25:19;;;;;;;3.72;1.07;;;;;;;28.43;36.80;100022.52;1661930;86;21097;-64
2023/08/08 08:27:48;;;;;;;2.95;1.10;;;;;;;28.57;36.01;100024.64;1665957;86;21441;-64
2023/08/08 08:30:18;;;;;;;2.70;1.20;;;;;;;28.59;35.48;100020.34;1659429;86;21085;-65
2023/08/08 08:32:49;;;;;;;4.20;1.20;;;;;;;28.42;35.87;100025.91;1657849;86;21037;-64
2023/08/08 08:35:18;;;;;;;1.82;1.00;;;;;;;28.28;35.73;100029.42;1657725;86;21100;-67
2023/08/08 08:37:50;;;;;;;2.10;0.98;;;;;;;28.25;36.09;100026.67;1657722;86;21084;-65
2023/08/08 08:40:20;;;;;;;1.20;0.78;;;;;;;28.39;35.80;100030.22;1657775;86;21073;-64
2023/08/08 08:42:51;;;;;;;2.02;1.17;;;;;;;28.59;35.69;100033.59;1657830;86;21119;-67
2023/08/08 08:45:21;;;;;;;1.12;0.98;;;;;;;28.71;34.83;100030.44;1657728;86;21168;-65
2023/08/08 08:47:50;;;;;;;3.52;1.92;;;;;;;28.75;33.97;100028.37;1657534;86;21155;-64
2023/08/08 08:50:21;;;;;;;3.05;1.57;;;;;;;28.73;34.40;100024.47;1640453;87;21094;-63
2023/08/08 08:52:50;;;;;;;1.20;1.10;;;;;;;28.64;34.58;100032.07;1642730;87;21065;-64
2023/08/08 08:55:19;;;;;;;2.33;1.10;;;;;;;28.66;34.85;100022.70;1657482;86;21077;-65
2023/08/08 08:57:50;;;;;;;2.00;1.10;;;;;;;28.86;34.83;100022.70;1657731;86;21082;-64
2023/08/08 09:00:19;;;;;;;2.62;0.88;;;;;;;28.88;34.44;100013.33;1652097;86;21186;-64
2023/08/08 09:02:48;;;;;;;2.22;0.88;;;;;;;28.84;33.84;100018.80;1657874;86;21457;-63
2023/08/08 09:05:17;;;;;;;3.85;1.45;;;;;;;28.81;33.90;100015.20;1657571;86;21073;-66
2023/08/08 09:07:46;;;;;;;3.90;1.50;;;;;;;28.55;34.33;100017.92;1657748;86;21486;-65
2023/08/08 09:10:15;;;;;;;1.42;1.00;;;;;;;28.27;34.68;100009.44;1657842;86;21058;-65
2023/08/08 09:12:45;;;;;;;3.22;1.50;;;;;;;28.03;35.66;100016.27;1657817;86;21057;-65
2023/08/08 09:15:14;;;;;;;1.95;1.17;;;;;;;27.83;36.28;100015.38;1658039;86;21097;-64
2023/08/08 09:17:44;;;;;;;1.52;1.00;;;;;;;27.63;36.33;100013.92;1657802;86;21133;-65
2023/08/08 09:20:15;;;;;;;1.55;1.15;;;;;;;27.35;36.63;100004.75;1657752;86;21053;-65
2023/08/08 09:22:43;;;;;;;2.15;1.10;;;;;;;27.11;37.12;100007.83;1657807;86;21089;-65
2023/08/08 09:25:12;;;;;;;4.80;1.10;;;;;;;26.99;37.31;100013.17;1657756;86;21034;-67
2023/08/08 09:27:43;;;;;;;7.35;2.08;;;;;;;26.88;37.73;100011.71;1657827;86;21084;-66
2023/08/08 09:30:12;;;;;;;1.45;1.00;;;;;;;26.88;37.21;100018.73;1659054;84;21085;-65
2023/08/08 09:32:44;;;;;;;3.05;1.00;;;;;;;26.82;37.12;100019.43;1660040;86;21045;-65
2023/08/08 09:35:12;;;;;;;1.17;0.70;;;;;;;26.75;37.00;100017.62;1659982;86;21089;-65
2023/08/08 09:37:43;;;;;;;1.50;1.20;;;;;;;26.60;37.15;100010.89;1659734;86;21045;-65
2023/08/08 09:40:11;;;;;;;2.27;0.80;;;;;;;26.32;37.52;100017.64;1659739;86;21518;-64
2023/08/08 09:42:41;;;;;;;2.77;0.90;;;;;;;26.09;38.27;100022.30;1659802;86;21013;-66
2023/08/08 09:45:11;;;;;;;1.85;0.90;;;;;;;26.06;38.02;100026.56;1660027;86;21061;-66
2023/08/08 09:47:39;;;;;;;1.50;1.20;;;;;;;26.10;38.37;100034.63;1659744;86;21030;-64
2023/08/08 09:50:09;;;;;;;1.25;0.98;;;;;;;26.05;38.84;100024.89;1659802;86;21041;-64
2023/08/08 09:52:38;;;;;;;2.02;1.10;;;;;;;25.97;39.40;100024.17;1659898;86;21033;-65
2023/08/08 09:55:09;;;;;;;4.45;1.40;;;;;;;25.91;39.99;100020.63;1659698;86;21136;-66
2023/08/08 09:57:40;;;;;;;2.90;1.52;;;;;;;25.73;40.26;100020.12;1659872;86;21049;-65
2023/08/08 10:00:15;;;;;;;3.25;1.32;;;;;;;25.55;40.46;100021.80;1645513;87;21051;-65
2023/08/08 10:02:40;;;;;;;2.15;1.12;;;;;;;25.42;40.83;100021.18;1660269;86;21050;-66
2023/08/08 10:05:12;;;;;;;7.67;1.45;;;;;;;25.39;41.31;100020.95;1660341;86;21030;-64
2023/08/08 10:07:42;;;;;;;1.37;1.00;;;;;;;25.38;40.79;100022.93;1660425;86;21474;-65
2023/08/08 10:10:11;;;;;;;1.40;1.00;;;;;;;25.39;40.09;100027.40;1660223;85;21070;-66
2023/08/08 10:12:41;;;;;;;1.82;1.20;;;;;;;25.38;40.13;100031.34;1660420;86;21109;-65
2023/08/08 10:15:11;;;;;;;4.28;0.98;;;;;;;25.39;40.51;100040.02;1660084;86;21113;-67
2023/08/08 10:17:41;;;;;;;3.22;1.60;;;;;;;25.36;40.26;100036.42;1660284;86;21102;-66
2023/08/08 10:20:11;;;;;;;3.08;1.32;;;;;;;25.34;40.47;100044.84;1660457;86;21030;-65
2023/08/08 10:22:44;;;;;;;1.12;1.00;;;;;;;25.35;40.75;100046.52;1660632;86;21022;-65
2023/08/08 10:25:26;;;;;;;3.75;1.40;;;;;;;25.39;40.01;100037.22;1660500;85;21065;-66
2023/08/08 10:28:14;;;;;;;2.17;1.00;;;;;;;25.33;40.26;100040.37;1660344;86;21078;-66
2023/08/08 10:30:49;;;;;;;2.87;1.17;;;;;;;25.24;39.91;100041.06;1633125;87;21062;-66
2023/08/08 10:33:42;;;;;;;1.30;1.20;;;;;;;25.27;40.40;100035.41;1662998;84;21101;-65
2023/08/08 10:36:13;;;;;;;2.40;1.00;;;;;;;25.28;40.71;100032.88;1688552;84;21058;-66
2023/08/08 10:38:52;;;;;;;2.27;1.00;;;;;;;25.23;40.42;100037.16;1698075;84;21089;-65
2023/08/08 10:41:21;;;;;;;1.17;0.80;;;;;;;25.21;40.47;100036.63;1663707;85;21081;-65
2023/08/08 10:43:56;;;;;;;3.20;1.02;;;;;;;25.17;40.09;100036.41;1664142;86;21077;-64
2023/08/08 10:46:33;;;;;;;3.02;1.60;;;;;;;25.16;40.25;100029.12;1664069;86;21469;-65
2023/08/08 10:49:05;;;;;;;2.52;1.05;;;;;;;25.18;40.22;100032.46;1697961;84;21498;-65
2023/08/08 10:51:46;;;;;;;2.55;0.90;;;;;;;25.22;40.25;100033.52;1698205;84;21092;-65
2023/08/08 10:54:17;;;;;;;1.22;0.95;;;;;;;25.22;40.17;100031.29;1698250;83;21065;-64
2023/08/08 10:56:50;;;;;;;1.77;1.20;;;;;;;25.23;40.54;100035.77;1698157;84;21089;-67
2023/08/08 10:59:29;;;;;;;4.83;1.27;;;;;;;25.28;40.07;100035.11;1698109;84;21069;-66
2023/08/08 11:02:00;;;;;;;4.72;2.15;;;;;;;25.29;40.53;100036.78;1652652;84;21616;-65
2023/08/08 11:04:30;;;;;;;2.17;1.17;;;;;;;25.29;40.64;100041.55;1590998;88;21070;-64
2023/08/08 11:06:59;;;;;;;3.20;1.10;;;;;;;25.27;40.52;100041.02;1564512;90;21534;-66
2023/08/08 11:09:28;;;;;;;1.92;1.20;;;;;;;25.20;40.45;100041.98;1611735;88;21110;-66
2023/08/08 11:11:57;;;;;;;1.27;0.98;;;;;;;25.10;40.06;100038.75;1617680;89;21074;-64
2023/08/08 11:14:27;;;;;;;2.50;1.20;;;;;;;25.06;40.03;100029.28;1617929;89;21228;-66
2023/08/08 11:16:56;;;;;;;1.10;0.80;;;;;;;25.11;40.35;100039.59;1617531;87;21070;-63
2023/08/08 11:19:25;;;;;;;3.30;1.12;;;;;;;25.14;40.41;100041.79;1617692;89;21106;-62
2023/08/08 11:21:55;;;;;;;2.22;1.00;;;;;;;25.15;40.03;100043.45;1617621;89;21544;-64
2023/08/08 11:24:24;;;;;;;2.55;0.93;;;;;;;25.15;40.31;100043.45;1617723;89;21261;-63
2023/08/08 11:26:58;;;;;;;2.37;1.00;;;;;;;25.10;40.32;100043.53;1617408;89;21141;-63
2023/08/08 11:29:30;;;;;;;4.55;1.10;;;;;;;25.03;40.52;100040.27;1617341;89;21077;-64
2023/08/08 11:32:00;;;;;;;2.02;0.93;;;;;;;25.03;40.48;100042.50;1609112;89;21079;-63
2023/08/08 11:34:36;;;;;;;1.65;0.82;;;;;;;25.01;40.69;100045.34;1582228;90;21095;-64
2023/08/08 11:37:05;;;;;;;1.90;1.32;;;;;;;24.98;41.08;100032.77;1608709;89;21083;-64
2023/08/08 11:39:33;;;;;;;1.05;0.90;;;;;;;24.97;41.25;100040.87;1608879;89;21217;-64
2023/08/08 11:42:02;;;;;;;6.15;2.85;;;;;;;24.95;40.80;100039.78;1608795;89;21126;-65